createdAt,value
2023-05-07T00:02:20.046Z,1.90
2023-05-07T00:04:47.244Z,1.90
2023-05-07T00:07:14.320Z,1.90
2023-05-07T00:09:41.551Z,2.00
2023-05-07T00:12:08.757Z,2.10
2023-05-07T00:14:35.750Z,1.90
2023-05-07T00:17:02.816Z,1.70
2023-05-07T00:19:29.866Z,2.00
2023-05-07T00:21:57.663Z,2.00
2023-05-07T00:24:24.792Z,2.30
2023-05-07T00:26:52.282Z,2.10
2023-05-07T00:29:19.540Z,2.00
2023-05-07T00:31:46.602Z,2.20
2023-05-07T00:34:13.779Z,2.00
2023-05-07T00:36:41.426Z,2.10
2023-05-07T00:39:08.441Z,1.90
2023-05-07T00:41:36.054Z,2.10
2023-05-07T00:44:03.898Z,2.20
2023-05-07T00:46:31.537Z,2.40
2023-05-07T00:48:58.653Z,2.50
2023-05-07T00:51:28.524Z,2.20
2023-05-07T00:53:55.769Z,2.30
2023-05-07T00:56:23.492Z,2.30
2023-05-07T00:58:50.679Z,2.10
2023-05-07T01:01:17.914Z,2.30
2023-05-07T01:03:45.077Z,2.10
2023-05-07T01:06:14.032Z,2.40
2023-05-07T01:08:42.133Z,2.10
2023-05-07T01:11:09.329Z,2.20
2023-05-07T01:13:36.552Z,2.20
2023-05-07T01:16:04.227Z,2.30
2023-05-07T01:18:31.499Z,2.10
2023-05-07T01:20:59.671Z,2.30
2023-05-07T01:23:27.477Z,2.30
2023-05-07T01:25:55.358Z,2.20
2023-05-07T01:28:23.655Z,2.20
2023-05-07T01:30:54.120Z,2.00
2023-05-07T01:33:25.271Z,2.30
2023-05-07T01:35:54.236Z,2.10
2023-05-07T01:38:22.887Z,2.10
2023-05-07T01:40:49.870Z,2.50
2023-05-07T01:43:17.046Z,2.30
2023-05-07T01:45:45.677Z,2.30
2023-05-07T01:48:13.140Z,2.30
2023-05-07T01:51:22.740Z,2.50
2023-05-07T01:53:52.158Z,2.50
2023-05-07T01:56:20.317Z,2.20
2023-05-07T01:58:47.809Z,2.40
2023-05-07T02:01:15.562Z,2.70
2023-05-07T02:03:43.072Z,2.70
2023-05-07T02:06:13.951Z,2.20
2023-05-07T02:08:41.093Z,2.60
2023-05-07T02:11:08.406Z,2.40
2023-05-07T02:13:36.425Z,2.30
2023-05-07T02:16:04.278Z,2.50
2023-05-07T02:18:31.831Z,2.50
2023-05-07T02:20:59.353Z,2.30
2023-05-07T02:23:26.520Z,2.40
2023-05-07T02:25:53.640Z,2.20
2023-05-07T02:28:20.678Z,2.20
2023-05-07T02:33:21.408Z,2.40
2023-05-07T02:35:48.464Z,2.40
2023-05-07T02:38:16.324Z,2.50
2023-05-07T02:40:44.200Z,2.40
2023-05-07T02:43:11.246Z,2.20
2023-05-07T02:45:38.982Z,2.30
2023-05-07T02:48:07.713Z,2.90
2023-05-07T02:50:34.887Z,2.70
2023-05-07T02:53:02.004Z,2.40
2023-05-07T02:55:29.375Z,2.50
2023-05-07T02:57:56.642Z,2.60
2023-05-07T03:00:24.862Z,2.50
2023-05-07T03:05:45.610Z,2.60
2023-05-07T03:08:12.648Z,2.70
2023-05-07T03:10:39.807Z,2.50
2023-05-07T03:13:07.064Z,2.70
2023-05-07T03:15:34.307Z,2.50
2023-05-07T03:18:01.503Z,2.60
2023-05-07T03:20:28.657Z,2.40
2023-05-07T03:22:56.276Z,2.50
2023-05-07T03:25:23.401Z,2.20
2023-05-07T03:27:50.718Z,2.60
2023-05-07T03:30:19.959Z,2.50
2023-05-07T03:32:47.182Z,2.50
2023-05-07T03:35:14.434Z,2.30
2023-05-07T03:37:41.828Z,2.10
2023-05-07T03:40:11.987Z,2.20
2023-05-07T03:42:44.850Z,2.40
2023-05-07T03:45:12.758Z,2.70
2023-05-07T03:47:42.271Z,2.60
2023-05-07T03:50:11.701Z,2.80
2023-05-07T03:52:39.136Z,2.90
2023-05-07T03:55:08.154Z,2.40
2023-05-07T03:57:36.049Z,2.60
2023-05-07T04:00:04.908Z,2.90
2023-05-07T04:02:35.193Z,2.70
2023-05-07T04:05:03.358Z,2.80
2023-05-07T04:07:30.438Z,2.90
2023-05-07T04:09:57.611Z,3.40
2023-05-07T04:12:24.910Z,3.00
2023-05-07T04:14:52.304Z,3.10
2023-05-07T04:17:19.359Z,3.00
2023-05-07T04:19:46.868Z,2.90
2023-05-07T04:22:14.929Z,3.30
2023-05-07T04:24:41.919Z,2.80
2023-05-07T04:27:09.978Z,2.80
2023-05-07T04:29:37.024Z,3.10
2023-05-07T04:32:04.226Z,2.90
2023-05-07T04:34:31.636Z,3.10
2023-05-07T04:37:00.744Z,3.60
2023-05-07T04:39:28.000Z,3.40
2023-05-07T04:41:55.045Z,3.50
2023-05-07T04:44:22.068Z,3.50
2023-05-07T04:46:49.306Z,3.10
2023-05-07T04:49:16.900Z,3.10
2023-05-07T04:51:45.013Z,3.40
2023-05-07T04:54:12.859Z,3.40
2023-05-07T04:56:39.828Z,2.50
2023-05-07T04:59:06.968Z,2.70
2023-05-07T05:01:34.429Z,2.30
2023-05-07T05:04:01.849Z,2.70
2023-05-07T05:06:30.132Z,2.40
2023-05-07T05:08:57.219Z,2.40
2023-05-07T05:11:25.353Z,2.30
2023-05-07T05:13:52.737Z,2.40
2023-05-07T05:16:21.129Z,2.40
2023-05-07T05:18:48.573Z,2.00
2023-05-07T05:21:17.412Z,2.30
2023-05-07T05:23:45.445Z,2.20
2023-05-07T05:26:13.328Z,2.40
2023-05-07T05:28:40.542Z,2.40
2023-05-07T05:31:07.694Z,2.30
2023-05-07T05:33:36.241Z,2.30
2023-05-07T05:36:05.424Z,2.80
2023-05-07T05:38:33.313Z,2.10
2023-05-07T05:41:01.158Z,2.10
2023-05-07T05:43:29.225Z,2.20
2023-05-07T05:45:57.207Z,2.20
2023-05-07T05:48:24.726Z,2.20
2023-05-07T05:50:52.026Z,2.10
2023-05-07T05:53:19.193Z,2.00
2023-05-07T05:55:46.373Z,2.10
2023-05-07T05:58:13.479Z,2.30
2023-05-07T06:00:43.220Z,2.10
2023-05-07T06:03:10.232Z,2.00
2023-05-07T06:05:37.308Z,2.00
2023-05-07T06:08:04.806Z,2.10
2023-05-07T06:10:33.661Z,2.20
2023-05-07T06:13:01.058Z,2.30
2023-05-07T06:15:29.140Z,2.50
2023-05-07T06:17:58.793Z,2.20
2023-05-07T06:20:25.978Z,1.90
2023-05-07T06:22:53.750Z,2.20
2023-05-07T06:25:21.451Z,2.30
2023-05-07T06:27:49.038Z,2.10
2023-05-07T06:30:16.252Z,2.30
2023-05-07T06:32:43.340Z,2.60
2023-05-07T06:35:11.450Z,2.70
2023-05-07T06:37:40.776Z,2.40
2023-05-07T06:40:10.021Z,2.50
2023-05-07T06:42:38.972Z,2.20
2023-05-07T06:45:26.444Z,2.10
2023-05-07T06:47:54.787Z,1.90
2023-05-07T06:50:22.888Z,2.10
2023-05-07T06:52:50.934Z,1.90
2023-05-07T06:55:18.154Z,2.20
2023-05-07T06:57:45.487Z,2.20
2023-05-07T07:00:13.602Z,2.00
2023-05-07T07:02:51.441Z,2.30
2023-05-07T07:05:20.807Z,2.00
2023-05-07T07:07:53.944Z,2.20
2023-05-07T07:10:22.162Z,2.20
2023-05-07T07:12:50.505Z,2.20
2023-05-07T07:15:18.069Z,2.00
2023-05-07T07:17:46.209Z,2.30
2023-05-07T07:20:13.791Z,2.20
2023-05-07T07:22:41.281Z,2.00
2023-05-07T07:25:10.821Z,2.00
2023-05-07T07:27:38.838Z,2.30
2023-05-07T07:30:07.987Z,2.00
2023-05-07T07:32:36.458Z,2.20
2023-05-07T07:35:03.891Z,2.00
2023-05-07T07:37:30.981Z,1.90
2023-05-07T07:39:58.315Z,2.00
2023-05-07T07:42:26.223Z,2.10
2023-05-07T07:44:53.676Z,2.20
2023-05-07T07:47:22.266Z,2.20
2023-05-07T07:49:49.628Z,2.00
2023-05-07T07:52:16.814Z,2.70
2023-05-07T07:54:44.615Z,2.10
2023-05-07T07:57:11.738Z,2.20
2023-05-07T07:59:38.785Z,2.80
2023-05-07T08:02:06.930Z,2.60
2023-05-07T08:04:34.827Z,2.40
2023-05-07T08:07:04.697Z,2.60
2023-05-07T08:09:33.039Z,2.50
2023-05-07T08:12:00.935Z,2.80
2023-05-07T08:14:29.465Z,3.20
2023-05-07T08:16:57.590Z,2.90
2023-05-07T08:19:24.873Z,2.80
2023-05-07T08:21:52.120Z,2.90
2023-05-07T08:24:19.708Z,2.20
2023-05-07T08:26:47.738Z,2.10
2023-05-07T08:29:15.721Z,2.60
2023-05-07T08:31:43.197Z,2.50
2023-05-07T08:34:10.448Z,2.40
2023-05-07T08:36:39.732Z,3.40
2023-05-07T08:39:07.082Z,2.40
2023-05-07T08:41:34.586Z,2.50
2023-05-07T08:44:03.960Z,2.70
2023-05-07T08:46:33.026Z,2.10
2023-05-07T08:49:00.177Z,2.30
2023-05-07T08:51:28.401Z,2.40
2023-05-07T08:53:56.014Z,1.70
2023-05-07T08:56:26.382Z,2.20
2023-05-07T08:58:57.709Z,2.30
2023-05-07T09:01:25.217Z,2.30
2023-05-07T09:03:52.979Z,2.20
2023-05-07T09:06:20.801Z,2.30
2023-05-07T09:08:52.425Z,2.10
2023-05-07T09:11:26.070Z,2.20
2023-05-07T09:13:58.833Z,1.80
2023-05-07T09:16:26.572Z,1.80
2023-05-07T09:18:54.638Z,2.00
2023-05-07T09:21:23.856Z,2.00
2023-05-07T09:23:52.424Z,2.30
2023-05-07T09:26:23.031Z,2.50
2023-05-07T09:28:50.284Z,2.30
2023-05-07T09:31:20.326Z,2.50
2023-05-07T09:33:48.524Z,2.20
2023-05-07T09:36:16.032Z,2.10
2023-05-07T09:38:43.201Z,2.20
2023-05-07T09:41:13.157Z,2.00
2023-05-07T09:44:03.264Z,2.10
2023-05-07T09:46:36.476Z,2.40
2023-05-07T09:49:10.930Z,2.00
2023-05-07T09:51:44.749Z,2.20
2023-05-07T09:54:11.980Z,2.50
2023-05-07T09:56:40.161Z,2.20
2023-05-07T09:59:07.379Z,1.70
2023-05-07T10:01:34.970Z,1.80
2023-05-07T10:04:03.563Z,2.00
2023-05-07T10:06:31.495Z,1.90
2023-05-07T10:08:59.717Z,1.90
2023-05-07T10:11:26.804Z,1.90
2023-05-07T10:13:53.950Z,2.40
2023-05-07T10:16:22.393Z,2.20
2023-05-07T10:18:50.027Z,2.30
2023-05-07T10:21:21.385Z,1.90
2023-05-07T10:24:03.004Z,1.90
2023-05-07T10:26:31.155Z,5.80
2023-05-07T10:29:05.488Z,2.00
2023-05-07T10:32:06.790Z,2.10
2023-05-07T10:34:39.090Z,2.20
2023-05-07T10:37:06.524Z,2.50
2023-05-07T10:39:33.600Z,2.20
2023-05-07T10:42:14.213Z,2.10
2023-05-07T10:44:45.462Z,2.20
2023-05-07T10:47:19.899Z,6.00
2023-05-07T10:49:49.138Z,4.00
2023-05-07T10:52:25.432Z,3.30
2023-05-07T10:55:26.698Z,2.40
2023-05-07T11:01:18.323Z,2.20
2023-05-07T11:04:16.111Z,1.60
2023-05-07T11:07:11.252Z,1.80
2023-05-07T11:09:54.901Z,2.60
2023-05-07T11:12:39.462Z,2.10
2023-05-07T11:15:13.149Z,2.10
2023-05-07T11:17:54.227Z,1.70
2023-05-07T11:20:21.782Z,2.10
2023-05-07T11:22:56.052Z,1.70
2023-05-07T11:25:31.578Z,2.10
2023-05-07T11:28:13.143Z,2.10
2023-05-07T11:30:47.955Z,2.20
2023-05-07T11:33:18.622Z,2.20
2023-05-07T11:35:46.634Z,2.10
2023-05-07T11:38:14.294Z,2.60
2023-05-07T11:40:52.148Z,2.60
2023-05-07T11:43:19.196Z,2.30
2023-05-07T11:45:47.580Z,3.50
2023-05-07T11:48:15.003Z,2.60
2023-05-07T11:51:10.976Z,2.00
2023-05-07T11:53:39.595Z,2.00
2023-05-07T11:56:08.683Z,2.40
2023-05-07T11:58:35.764Z,2.20
2023-05-07T12:01:02.804Z,1.90
2023-05-07T12:03:31.916Z,2.10
2023-05-07T12:06:02.658Z,2.10
2023-05-07T12:08:29.635Z,2.30
2023-05-07T12:10:56.609Z,1.50
2023-05-07T12:13:25.423Z,1.40
2023-05-07T12:15:53.281Z,1.80
2023-05-07T12:18:20.470Z,1.80
2023-05-07T12:20:47.468Z,1.70
2023-05-07T12:23:14.642Z,1.90
2023-05-07T12:25:48.968Z,1.70
2023-05-07T12:28:17.184Z,2.20
2023-05-07T12:30:45.757Z,1.80
2023-05-07T12:33:13.051Z,2.00
2023-05-07T12:35:44.503Z,2.00
2023-05-07T12:38:13.074Z,1.70
2023-05-07T12:40:48.353Z,1.60
2023-05-07T12:43:23.500Z,1.80
2023-05-07T12:45:51.636Z,2.10
2023-05-07T12:48:19.016Z,2.10
2023-05-07T12:50:46.114Z,1.60
2023-05-07T12:53:13.635Z,1.80
2023-05-07T12:55:48.822Z,2.20
2023-05-07T12:58:19.995Z,1.50
2023-05-07T13:00:49.520Z,1.90
2023-05-07T13:03:30.921Z,2.10
2023-05-07T13:06:03.685Z,1.50
2023-05-07T13:08:34.632Z,2.20
2023-05-07T13:11:05.863Z,1.90
2023-05-07T13:13:33.507Z,2.30
2023-05-07T13:16:01.658Z,2.20
2023-05-07T13:18:33.784Z,2.30
2023-05-07T13:21:01.502Z,1.70
2023-05-07T13:23:28.943Z,1.80
2023-05-07T13:25:57.058Z,1.90
2023-05-07T13:28:25.192Z,1.50
2023-05-07T13:30:53.147Z,1.80
2023-05-07T13:33:20.138Z,1.80
2023-05-07T13:35:47.145Z,2.00
2023-05-07T13:38:14.230Z,1.90
2023-05-07T13:40:41.271Z,2.10
2023-05-07T13:43:09.124Z,2.20
2023-05-07T13:45:36.202Z,2.00
2023-05-07T13:48:03.426Z,2.00
2023-05-07T13:50:31.184Z,1.70
2023-05-07T13:52:58.285Z,1.90
2023-05-07T13:55:26.018Z,1.80
2023-05-07T13:58:00.167Z,2.20
2023-05-07T14:00:28.387Z,2.00
2023-05-07T14:02:56.438Z,2.50
2023-05-07T14:05:28.003Z,1.90
2023-05-07T14:09:03.507Z,1.80
2023-05-07T14:11:31.005Z,2.30
2023-05-07T14:13:59.743Z,2.00
2023-05-07T14:16:26.821Z,2.10
2023-05-07T14:18:58.018Z,1.90
2023-05-07T14:21:25.651Z,1.80
2023-05-07T14:23:52.771Z,2.00
2023-05-07T14:26:20.519Z,1.70
2023-05-07T14:28:47.788Z,1.60
2023-05-07T14:31:15.094Z,2.10
2023-05-07T14:33:42.408Z,1.90
2023-05-07T14:36:09.614Z,2.10
2023-05-07T14:38:36.613Z,1.80
2023-05-07T14:41:04.529Z,1.70
2023-05-07T14:43:31.515Z,2.10
2023-05-07T14:45:58.602Z,2.40
2023-05-07T14:48:25.894Z,1.60
2023-05-07T14:50:52.875Z,1.80
2023-05-07T14:53:19.874Z,1.60
2023-05-07T14:55:47.259Z,1.60
2023-05-07T14:58:14.664Z,1.80
2023-05-07T15:00:41.717Z,1.80
2023-05-07T15:03:10.892Z,3.00
2023-05-07T15:05:38.806Z,2.70
2023-05-07T15:08:06.427Z,2.10
2023-05-07T15:10:41.507Z,2.40
2023-05-07T15:13:11.746Z,2.10
2023-05-07T15:15:40.941Z,2.80
2023-05-07T15:18:08.390Z,2.20
2023-05-07T15:20:36.319Z,2.20
2023-05-07T15:23:06.113Z,2.00
2023-05-07T15:25:35.068Z,1.90
2023-05-07T15:28:02.208Z,1.80
2023-05-07T15:30:29.283Z,2.30
2023-05-07T15:32:56.996Z,2.30
2023-05-07T15:35:24.660Z,1.90
2023-05-07T15:37:51.771Z,2.20
2023-05-07T15:40:20.157Z,2.10
2023-05-07T15:42:47.207Z,1.90
2023-05-07T15:45:14.475Z,2.10
2023-05-07T15:47:41.791Z,2.20
2023-05-07T15:50:09.366Z,2.20
2023-05-07T15:52:36.660Z,1.80
2023-05-07T15:55:03.924Z,1.60
2023-05-07T15:57:32.275Z,2.00
2023-05-07T15:59:59.367Z,2.50
2023-05-07T16:02:26.980Z,2.00
2023-05-07T16:04:54.559Z,2.10
2023-05-07T16:07:21.694Z,2.40
2023-05-07T16:09:49.034Z,2.50
2023-05-07T16:12:17.085Z,3.20
2023-05-07T16:14:44.221Z,4.20
2023-05-07T16:17:11.209Z,3.70
2023-05-07T16:19:38.224Z,2.30
2023-05-07T16:22:05.303Z,2.30
2023-05-07T16:24:32.950Z,2.20
2023-05-07T16:27:00.029Z,2.20
2023-05-07T16:29:27.072Z,2.20
2023-05-07T16:31:54.521Z,2.50
2023-05-07T16:34:23.004Z,2.00
2023-05-07T16:36:50.217Z,2.20
2023-05-07T16:39:17.716Z,3.60
2023-05-07T16:41:48.852Z,5.30
2023-05-07T16:44:15.892Z,3.30
2023-05-07T16:46:43.179Z,2.30
2023-05-07T16:49:10.797Z,2.80
2023-05-07T16:51:38.603Z,2.90
2023-05-07T16:54:05.680Z,2.20
2023-05-07T16:56:32.648Z,3.10
2023-05-07T16:58:59.694Z,2.80
2023-05-07T17:01:26.775Z,2.20
2023-05-07T17:03:54.239Z,1.90
2023-05-07T17:06:21.353Z,1.90
2023-05-07T17:08:48.469Z,2.00
2023-05-07T17:11:15.502Z,2.40
2023-05-07T17:13:42.557Z,2.20
2023-05-07T17:16:09.896Z,2.90
2023-05-07T17:18:37.074Z,2.70
2023-05-07T17:21:04.250Z,2.10
2023-05-07T17:23:31.326Z,2.00
2023-05-07T17:25:58.365Z,2.10
2023-05-07T17:28:25.448Z,2.10
2023-05-07T17:30:52.433Z,1.90
2023-05-07T17:33:21.932Z,1.70
2023-05-07T17:35:49.879Z,2.00
2023-05-07T17:38:16.952Z,1.70
2023-05-07T17:40:44.722Z,1.70
2023-05-07T17:43:11.700Z,1.90
2023-05-07T17:45:38.730Z,2.20
2023-05-07T17:48:05.945Z,1.90
2023-05-07T17:50:33.236Z,1.90
2023-05-07T17:53:00.987Z,2.10
2023-05-07T17:55:28.656Z,1.90
2023-05-07T17:57:56.813Z,2.20
2023-05-07T18:00:23.944Z,2.10
2023-05-07T18:02:54.171Z,2.10
2023-05-07T18:05:21.535Z,2.10
2023-05-07T18:07:48.552Z,2.00
2023-05-07T18:10:15.627Z,1.80
2023-05-07T18:12:42.838Z,2.00
2023-05-07T18:15:10.152Z,1.90
2023-05-07T18:17:37.411Z,2.20
2023-05-07T18:20:06.552Z,2.30
2023-05-07T18:22:33.682Z,2.00
2023-05-07T18:25:01.215Z,2.10
2023-05-07T18:27:29.344Z,2.00
2023-05-07T18:29:56.460Z,1.90
2023-05-07T18:32:23.586Z,1.80
2023-05-07T18:34:50.808Z,1.80
2023-05-07T18:37:18.119Z,2.10
2023-05-07T18:39:46.295Z,1.90
2023-05-07T18:42:13.763Z,1.80
2023-05-07T18:44:40.901Z,1.60
2023-05-07T18:47:07.956Z,1.90
2023-05-07T18:49:35.220Z,1.80
2023-05-07T18:52:02.335Z,1.80
2023-05-07T18:54:29.416Z,1.80
2023-05-07T18:56:56.408Z,2.10
2023-05-07T18:59:23.521Z,1.80
2023-05-07T19:01:50.806Z,2.40
2023-05-07T19:04:18.564Z,3.10
2023-05-07T19:06:46.286Z,2.50
2023-05-07T19:09:13.278Z,2.80
2023-05-07T19:11:40.345Z,2.40
2023-05-07T19:14:09.925Z,1.90
2023-05-07T19:16:37.578Z,2.10
2023-05-07T19:19:07.178Z,2.00
2023-05-07T19:21:34.185Z,1.90
2023-05-07T19:24:01.172Z,2.20
2023-05-07T19:26:29.073Z,4.10
2023-05-07T19:29:12.265Z,5.00
2023-05-07T19:31:44.204Z,6.50
2023-05-07T19:34:13.437Z,2.70
2023-05-07T19:36:40.577Z,2.60
2023-05-07T19:39:07.878Z,2.00
2023-05-07T19:41:35.072Z,2.00
2023-05-07T19:44:02.300Z,2.10
2023-05-07T19:46:30.061Z,2.40
2023-05-07T19:48:57.063Z,2.80
2023-05-07T19:51:24.109Z,2.40
2023-05-07T19:53:51.644Z,2.10
2023-05-07T19:56:18.621Z,2.00
2023-05-07T19:58:45.682Z,2.10
2023-05-07T20:01:12.761Z,1.60
2023-05-07T20:03:40.035Z,1.70
2023-05-07T20:06:07.269Z,1.50
2023-05-07T20:08:34.308Z,2.00
2023-05-07T20:11:01.359Z,1.70
2023-05-07T20:13:28.617Z,1.80
2023-05-07T20:15:59.771Z,1.80
2023-05-07T20:18:27.793Z,1.70
2023-05-07T20:20:55.149Z,1.90
2023-05-07T20:23:22.465Z,1.90
2023-05-07T20:25:50.574Z,2.20
2023-05-07T20:28:17.748Z,2.10
2023-05-07T20:30:44.819Z,2.30
2023-05-07T20:33:12.757Z,2.20
2023-05-07T20:35:39.817Z,1.80
2023-05-07T20:38:06.904Z,1.90
2023-05-07T20:40:37.172Z,2.10
2023-05-07T20:43:07.278Z,2.00
2023-05-07T20:45:34.387Z,1.80
2023-05-07T20:48:01.457Z,1.90
2023-05-07T20:50:28.998Z,1.80
2023-05-07T20:52:56.129Z,1.80
2023-05-07T20:55:23.172Z,1.80
2023-05-07T20:57:50.275Z,1.80
2023-05-07T21:00:17.997Z,2.00
2023-05-07T21:02:45.363Z,1.80
2023-05-07T21:05:12.611Z,2.10
2023-05-07T21:07:39.625Z,2.00
2023-05-07T21:10:07.135Z,1.80
2023-05-07T21:12:34.115Z,1.80
2023-05-07T21:15:01.196Z,1.80
2023-05-07T21:17:30.726Z,2.00
2023-05-07T21:19:57.784Z,1.70
2023-05-07T21:22:24.903Z,1.70
2023-05-07T21:24:51.881Z,1.70
2023-05-07T21:27:18.955Z,1.60
2023-05-07T21:29:46.345Z,1.70
2023-05-07T21:32:13.352Z,1.60
2023-05-07T21:34:40.443Z,1.70
2023-05-07T21:37:07.526Z,1.70
2023-05-07T21:39:34.583Z,1.80
2023-05-07T21:42:01.988Z,1.70
2023-05-07T21:44:30.117Z,1.60
2023-05-07T21:46:57.249Z,1.90
2023-05-07T21:49:24.225Z,1.90
2023-05-07T21:51:51.244Z,1.80
2023-05-07T21:54:18.391Z,2.00
2023-05-07T21:56:46.570Z,1.80
2023-05-07T21:59:15.001Z,1.90
2023-05-07T22:01:42.010Z,2.20
2023-05-07T22:04:09.020Z,2.00
2023-05-07T22:06:36.211Z,2.30
2023-05-07T22:09:03.748Z,2.20
2023-05-07T22:11:30.800Z,2.00
2023-05-07T22:13:57.828Z,2.20
2023-05-07T22:16:24.893Z,1.80
2023-05-07T22:18:51.949Z,2.10
2023-05-07T22:21:18.956Z,2.30
2023-05-07T22:23:45.968Z,2.40
2023-05-07T22:26:13.550Z,2.30
2023-05-07T22:28:40.697Z,2.50
2023-05-07T22:31:07.819Z,2.40
2023-05-07T22:33:35.404Z,2.90
2023-05-07T22:36:02.458Z,2.60
2023-05-07T22:38:29.487Z,3.10
2023-05-07T22:40:56.512Z,3.20
2023-05-07T22:43:23.542Z,2.70
2023-05-07T22:45:50.616Z,3.00
2023-05-07T22:48:17.646Z,2.70
2023-05-07T22:50:44.667Z,3.20
2023-05-07T22:53:11.717Z,3.10
2023-05-07T22:55:39.623Z,2.90
2023-05-07T22:58:08.242Z,3.40
2023-05-07T23:00:35.300Z,3.50
2023-05-07T23:03:02.442Z,3.30
2023-05-07T23:05:29.699Z,3.10
2023-05-07T23:07:56.771Z,3.20
2023-05-07T23:10:23.765Z,2.70
2023-05-07T23:12:50.970Z,2.80
2023-05-07T23:15:18.691Z,3.40
2023-05-07T23:17:45.896Z,3.20
2023-05-07T23:20:13.742Z,3.00
2023-05-07T23:22:40.952Z,2.80
2023-05-07T23:25:11.508Z,3.90
2023-05-07T23:27:38.570Z,3.30
2023-05-07T23:30:06.564Z,3.90
2023-05-07T23:32:33.594Z,3.70
2023-05-07T23:35:01.102Z,3.80
2023-05-07T23:37:28.086Z,4.30
2023-05-07T23:39:55.199Z,4.30
2023-05-07T23:42:22.227Z,4.60
2023-05-07T23:44:49.219Z,4.50
2023-05-07T23:47:16.219Z,3.80
2023-05-07T23:49:43.258Z,3.10
2023-05-07T23:52:10.425Z,3.10
2023-05-07T23:54:37.454Z,3.10
2023-05-07T23:57:04.853Z,2.30
2023-05-07T23:59:32.194Z,2.50
